sensor_id;sensor_type;location;lat;lon;timestamp;P1;durP1;ratioP1;P2;durP2;ratioP2
17927;SDS011;9089;58.396;15.544;2022-12-07T00:00:01;6.45;;;3.50;;
17927;SDS011;9089;58.396;15.544;2022-12-07T00:02:26;9.10;;;3.65;;
17927;SDS011;9089;58.396;15.544;2022-12-07T00:04:53;4.50;;;2.75;;
17927;SDS011;9089;58.396;15.544;2022-12-07T00:07:19;4.38;;;3.25;;
17927;SDS011;9089;58.396;15.544;2022-12-07T00:09:44;4.72;;;2.65;;
17927;SDS011;9089;58.396;15.544;2022-12-07T00:12:10;4.85;;;3.08;;
17927;SDS011;9089;58.396;15.544;2022-12-07T00:14:35;5.10;;;3.22;;
17927;SDS011;9089;58.396;15.544;2022-12-07T00:17:00;7.90;;;3.53;;
17927;SDS011;9089;58.396;15.544;2022-12-07T00:19:26;6.85;;;3.67;;
17927;SDS011;9089;58.396;15.544;2022-12-07T00:21:53;5.63;;;3.17;;
17927;SDS011;9089;58.396;15.544;2022-12-07T00:24:18;6.45;;;2.97;;
17927;SDS011;9089;58.396;15.544;2022-12-07T00:26:43;6.05;;;3.17;;
17927;SDS011;9089;58.396;15.544;2022-12-07T00:29:11;5.28;;;3.17;;
17927;SDS011;9089;58.396;15.544;2022-12-07T00:31:38;5.15;;;3.03;;
17927;SDS011;9089;58.396;15.544;2022-12-07T00:34:04;4.93;;;3.17;;
17927;SDS011;9089;58.396;15.544;2022-12-07T00:36:29;7.38;;;3.47;;
17927;SDS011;9089;58.396;15.544;2022-12-07T00:38:57;5.88;;;3.08;;
17927;SDS011;9089;58.396;15.544;2022-12-07T00:41:23;6.00;;;3.13;;
17927;SDS011;9089;58.396;15.544;2022-12-07T00:43:49;9.65;;;2.60;;
17927;SDS011;9089;58.396;15.544;2022-12-07T00:46:14;3.92;;;2.70;;
17927;SDS011;9089;58.396;15.544;2022-12-07T00:48:40;4.07;;;2.75;;
17927;SDS011;9089;58.396;15.544;2022-12-07T00:51:06;5.55;;;2.90;;
17927;SDS011;9089;58.396;15.544;2022-12-07T00:53:33;2.95;;;2.55;;
17927;SDS011;9089;58.396;15.544;2022-12-07T00:56:05;3.70;;;2.45;;
17927;SDS011;9089;58.396;15.544;2022-12-07T00:58:30;3.85;;;2.45;;
17927;SDS011;9089;58.396;15.544;2022-12-07T01:00:56;7.22;;;3.13;;
17927;SDS011;9089;58.396;15.544;2022-12-07T01:03:24;3.42;;;2.95;;
17927;SDS011;9089;58.396;15.544;2022-12-07T01:05:50;6.35;;;2.70;;
17927;SDS011;9089;58.396;15.544;2022-12-07T01:08:15;5.80;;;2.97;;
17927;SDS011;9089;58.396;15.544;2022-12-07T01:10:41;5.70;;;2.85;;
17927;SDS011;9089;58.396;15.544;2022-12-07T01:13:08;3.40;;;3.10;;
17927;SDS011;9089;58.396;15.544;2022-12-07T01:15:33;7.15;;;2.97;;
17927;SDS011;9089;58.396;15.544;2022-12-07T01:17:58;3.42;;;2.70;;
17927;SDS011;9089;58.396;15.544;2022-12-07T01:20:24;6.47;;;3.05;;
17927;SDS011;9089;58.396;15.544;2022-12-07T01:22:49;4.57;;;2.90;;
17927;SDS011;9089;58.396;15.544;2022-12-07T01:25:14;5.28;;;2.78;;
17927;SDS011;9089;58.396;15.544;2022-12-07T01:27:40;5.90;;;2.95;;
17927;SDS011;9089;58.396;15.544;2022-12-07T01:30:07;4.78;;;2.53;;
17927;SDS011;9089;58.396;15.544;2022-12-07T01:32:33;2.97;;;2.67;;
17927;SDS011;9089;58.396;15.544;2022-12-07T01:34:59;6.07;;;3.53;;
17927;SDS011;9089;58.396;15.544;2022-12-07T01:37:24;4.13;;;2.80;;
17927;SDS011;9089;58.396;15.544;2022-12-07T01:39:49;6.53;;;3.42;;
17927;SDS011;9089;58.396;15.544;2022-12-07T01:42:15;4.15;;;2.97;;
17927;SDS011;9089;58.396;15.544;2022-12-07T01:47:22;4.43;;;2.70;;
17927;SDS011;9089;58.396;15.544;2022-12-07T01:49:48;5.00;;;2.55;;
17927;SDS011;9089;58.396;15.544;2022-12-07T01:52:14;6.65;;;2.70;;
17927;SDS011;9089;58.396;15.544;2022-12-07T01:54:40;3.85;;;2.55;;
17927;SDS011;9089;58.396;15.544;2022-12-07T01:57:07;6.18;;;2.67;;
17927;SDS011;9089;58.396;15.544;2022-12-07T01:59:33;4.55;;;2.92;;
17927;SDS011;9089;58.396;15.544;2022-12-07T02:01:58;4.25;;;2.17;;
17927;SDS011;9089;58.396;15.544;2022-12-07T02:04:26;4.88;;;2.90;;
17927;SDS011;9089;58.396;15.544;2022-12-07T02:06:51;3.90;;;1.95;;
17927;SDS011;9089;58.396;15.544;2022-12-07T02:09:17;3.90;;;2.63;;
17927;SDS011;9089;58.396;15.544;2022-12-07T02:11:42;7.25;;;2.70;;
17927;SDS011;9089;58.396;15.544;2022-12-07T02:14:08;5.22;;;2.88;;
17927;SDS011;9089;58.396;15.544;2022-12-07T02:16:34;5.05;;;2.38;;
17927;SDS011;9089;58.396;15.544;2022-12-07T02:19:09;3.17;;;2.42;;
17927;SDS011;9089;58.396;15.544;2022-12-07T02:21:42;3.17;;;2.67;;
17927;SDS011;9089;58.396;15.544;2022-12-07T02:24:24;4.90;;;2.67;;
17927;SDS011;9089;58.396;15.544;2022-12-07T02:29:54;3.83;;;2.55;;
17927;SDS011;9089;58.396;15.544;2022-12-07T02:32:24;6.25;;;2.90;;
17927;SDS011;9089;58.396;15.544;2022-12-07T02:34:52;7.93;;;3.20;;
17927;SDS011;9089;58.396;15.544;2022-12-07T02:37:25;4.30;;;3.40;;
17927;SDS011;9089;58.396;15.544;2022-12-07T02:39:53;9.57;;;3.25;;
17927;SDS011;9089;58.396;15.544;2022-12-07T02:42:23;5.03;;;2.90;;
17927;SDS011;9089;58.396;15.544;2022-12-07T02:44:50;3.90;;;2.90;;
17927;SDS011;9089;58.396;15.544;2022-12-07T02:47:17;5.30;;;2.78;;
17927;SDS011;9089;58.396;15.544;2022-12-07T02:49:44;7.07;;;3.08;;
17927;SDS011;9089;58.396;15.544;2022-12-07T02:52:10;2.53;;;2.33;;
17927;SDS011;9089;58.396;15.544;2022-12-07T02:54:35;3.80;;;2.85;;
17927;SDS011;9089;58.396;15.544;2022-12-07T02:57:03;7.35;;;3.10;;
17927;SDS011;9089;58.396;15.544;2022-12-07T02:59:35;6.10;;;2.80;;
17927;SDS011;9089;58.396;15.544;2022-12-07T03:02:04;4.60;;;2.85;;
17927;SDS011;9089;58.396;15.544;2022-12-07T03:04:41;5.72;;;2.72;;
17927;SDS011;9089;58.396;15.544;2022-12-07T03:07:09;3.95;;;2.70;;
17927;SDS011;9089;58.396;15.544;2022-12-07T03:09:37;5.63;;;3.65;;
17927;SDS011;9089;58.396;15.544;2022-12-07T03:12:06;3.88;;;2.47;;
17927;SDS011;9089;58.396;15.544;2022-12-07T03:14:34;6.30;;;2.85;;
17927;SDS011;9089;58.396;15.544;2022-12-07T03:17:02;3.60;;;3.10;;
17927;SDS011;9089;58.396;15.544;2022-12-07T03:19:29;4.60;;;3.10;;
17927;SDS011;9089;58.396;15.544;2022-12-07T03:21:59;5.40;;;2.75;;
17927;SDS011;9089;58.396;15.544;2022-12-07T03:24:26;3.28;;;2.78;;
17927;SDS011;9089;58.396;15.544;2022-12-07T03:26:52;9.63;;;3.67;;
17927;SDS011;9089;58.396;15.544;2022-12-07T03:29:22;6.80;;;3.85;;
17927;SDS011;9089;58.396;15.544;2022-12-07T03:31:49;5.80;;;3.22;;
17927;SDS011;9089;58.396;15.544;2022-12-07T03:34:16;4.93;;;3.05;;
17927;SDS011;9089;58.396;15.544;2022-12-07T03:36:44;4.03;;;3.03;;
17927;SDS011;9089;58.396;15.544;2022-12-07T03:39:15;9.13;;;3.60;;
17927;SDS011;9089;58.396;15.544;2022-12-07T03:41:43;6.18;;;3.83;;
17927;SDS011;9089;58.396;15.544;2022-12-07T03:44:08;6.55;;;3.60;;
17927;SDS011;9089;58.396;15.544;2022-12-07T03:46:35;6.78;;;3.55;;
17927;SDS011;9089;58.396;15.544;2022-12-07T03:49:04;5.35;;;3.80;;
17927;SDS011;9089;58.396;15.544;2022-12-07T03:51:33;3.40;;;3.03;;
17927;SDS011;9089;58.396;15.544;2022-12-07T03:54:05;7.40;;;3.17;;
17927;SDS011;9089;58.396;15.544;2022-12-07T03:56:33;3.92;;;2.80;;
17927;SDS011;9089;58.396;15.544;2022-12-07T03:59:00;6.72;;;3.00;;
17927;SDS011;9089;58.396;15.544;2022-12-07T04:01:25;6.85;;;3.35;;
17927;SDS011;9089;58.396;15.544;2022-12-07T04:03:51;6.30;;;3.50;;
17927;SDS011;9089;58.396;15.544;2022-12-07T04:06:16;6.82;;;3.30;;
17927;SDS011;9089;58.396;15.544;2022-12-07T04:08:42;5.57;;;3.22;;
17927;SDS011;9089;58.396;15.544;2022-12-07T04:11:07;4.10;;;3.10;;
17927;SDS011;9089;58.396;15.544;2022-12-07T04:13:34;5.22;;;3.15;;
17927;SDS011;9089;58.396;15.544;2022-12-07T04:16:19;7.15;;;3.30;;
17927;SDS011;9089;58.396;15.544;2022-12-07T04:18:45;8.45;;;3.63;;
17927;SDS011;9089;58.396;15.544;2022-12-07T04:21:10;6.30;;;2.85;;
17927;SDS011;9089;58.396;15.544;2022-12-07T04:23:36;5.03;;;3.10;;
17927;SDS011;9089;58.396;15.544;2022-12-07T04:26:01;8.52;;;3.22;;
17927;SDS011;9089;58.396;15.544;2022-12-07T04:28:27;7.15;;;3.70;;
17927;SDS011;9089;58.396;15.544;2022-12-07T04:30:54;4.78;;;3.05;;
17927;SDS011;9089;58.396;15.544;2022-12-07T04:33:19;3.83;;;2.80;;
17927;SDS011;9089;58.396;15.544;2022-12-07T04:35:44;6.68;;;2.65;;
17927;SDS011;9089;58.396;15.544;2022-12-07T04:38:10;5.47;;;2.80;;
17927;SDS011;9089;58.396;15.544;2022-12-07T04:40:35;3.33;;;2.42;;
17927;SDS011;9089;58.396;15.544;2022-12-07T04:43:00;4.72;;;2.67;;
17927;SDS011;9089;58.396;15.544;2022-12-07T04:45:26;4.28;;;2.50;;
17927;SDS011;9089;58.396;15.544;2022-12-07T04:47:53;3.63;;;2.65;;
17927;SDS011;9089;58.396;15.544;2022-12-07T04:50:18;5.75;;;2.95;;
17927;SDS011;9089;58.396;15.544;2022-12-07T04:52:44;5.55;;;3.13;;
17927;SDS011;9089;58.396;15.544;2022-12-07T04:55:09;5.40;;;3.15;;
17927;SDS011;9089;58.396;15.544;2022-12-07T04:57:34;4.05;;;2.53;;
17927;SDS011;9089;58.396;15.544;2022-12-07T05:00:00;3.75;;;2.58;;
17927;SDS011;9089;58.396;15.544;2022-12-07T05:02:25;4.57;;;2.55;;
17927;SDS011;9089;58.396;15.544;2022-12-07T05:04:52;3.08;;;2.15;;
17927;SDS011;9089;58.396;15.544;2022-12-07T05:07:17;7.28;;;2.72;;
17927;SDS011;9089;58.396;15.544;2022-12-07T05:09:43;6.20;;;2.53;;
17927;SDS011;9089;58.396;15.544;2022-12-07T05:12:09;3.70;;;2.00;;
17927;SDS011;9089;58.396;15.544;2022-12-07T05:14:34;4.45;;;2.60;;
17927;SDS011;9089;58.396;15.544;2022-12-07T05:16:59;2.63;;;2.17;;
17927;SDS011;9089;58.396;15.544;2022-12-07T05:19:25;3.80;;;2.17;;
17927;SDS011;9089;58.396;15.544;2022-12-07T05:21:52;2.45;;;2.10;;
17927;SDS011;9089;58.396;15.544;2022-12-07T05:24:18;3.78;;;2.03;;
17927;SDS011;9089;58.396;15.544;2022-12-07T05:26:43;3.75;;;2.25;;
17927;SDS011;9089;58.396;15.544;2022-12-07T05:29:10;4.95;;;2.42;;
17927;SDS011;9089;58.396;15.544;2022-12-07T05:31:36;3.75;;;2.38;;
17927;SDS011;9089;58.396;15.544;2022-12-07T05:34:01;7.53;;;2.65;;
17927;SDS011;9089;58.396;15.544;2022-12-07T05:36:27;8.63;;;2.72;;
17927;SDS011;9089;58.396;15.544;2022-12-07T05:38:55;5.60;;;2.30;;
17927;SDS011;9089;58.396;15.544;2022-12-07T05:41:20;2.70;;;2.25;;
17927;SDS011;9089;58.396;15.544;2022-12-07T05:44:04;4.05;;;2.28;;
17927;SDS011;9089;58.396;15.544;2022-12-07T05:46:30;3.70;;;2.45;;
17927;SDS011;9089;58.396;15.544;2022-12-07T05:48:55;3.55;;;2.08;;
17927;SDS011;9089;58.396;15.544;2022-12-07T05:51:20;7.43;;;2.28;;
17927;SDS011;9089;58.396;15.544;2022-12-07T05:53:46;4.95;;;2.20;;
17927;SDS011;9089;58.396;15.544;2022-12-07T05:56:13;6.03;;;2.50;;
17927;SDS011;9089;58.396;15.544;2022-12-07T05:58:39;8.40;;;2.38;;
17927;SDS011;9089;58.396;15.544;2022-12-07T06:01:23;4.15;;;2.65;;
17927;SDS011;9089;58.396;15.544;2022-12-07T06:03:49;2.90;;;2.25;;
17927;SDS011;9089;58.396;15.544;2022-12-07T06:06:15;3.35;;;2.67;;
17927;SDS011;9089;58.396;15.544;2022-12-07T06:08:40;5.00;;;2.45;;
17927;SDS011;9089;58.396;15.544;2022-12-07T06:11:05;4.70;;;2.33;;
17927;SDS011;9089;58.396;15.544;2022-12-07T06:13:51;3.58;;;2.50;;
17927;SDS011;9089;58.396;15.544;2022-12-07T06:16:16;3.22;;;2.17;;
17927;SDS011;9089;58.396;15.544;2022-12-07T06:18:42;4.28;;;2.42;;
17927;SDS011;9089;58.396;15.544;2022-12-07T06:21:07;3.03;;;2.30;;
17927;SDS011;9089;58.396;15.544;2022-12-07T06:23:33;5.43;;;2.55;;
17927;SDS011;9089;58.396;15.544;2022-12-07T06:25:58;5.57;;;2.90;;
17927;SDS011;9089;58.396;15.544;2022-12-07T06:28:24;4.65;;;2.78;;
17927;SDS011;9089;58.396;15.544;2022-12-07T06:30:57;5.18;;;2.42;;
17927;SDS011;9089;58.396;15.544;2022-12-07T06:33:23;3.70;;;2.80;;
17927;SDS011;9089;58.396;15.544;2022-12-07T06:35:48;4.38;;;2.72;;
17927;SDS011;9089;58.396;15.544;2022-12-07T06:38:14;4.63;;;2.75;;
17927;SDS011;9089;58.396;15.544;2022-12-07T06:40:39;3.70;;;2.47;;
17927;SDS011;9089;58.396;15.544;2022-12-07T06:43:04;7.45;;;3.00;;
17927;SDS011;9089;58.396;15.544;2022-12-07T06:45:30;5.35;;;2.53;;
17927;SDS011;9089;58.396;15.544;2022-12-07T06:47:57;3.35;;;2.58;;
17927;SDS011;9089;58.396;15.544;2022-12-07T06:50:22;3.92;;;2.30;;
17927;SDS011;9089;58.396;15.544;2022-12-07T06:52:47;4.40;;;2.17;;
17927;SDS011;9089;58.396;15.544;2022-12-07T06:55:13;3.38;;;2.00;;
17927;SDS011;9089;58.396;15.544;2022-12-07T06:57:39;3.38;;;3.08;;
17927;SDS011;9089;58.396;15.544;2022-12-07T07:00:05;6.25;;;2.30;;
17927;SDS011;9089;58.396;15.544;2022-12-07T07:02:32;5.10;;;2.00;;
17927;SDS011;9089;58.396;15.544;2022-12-07T07:04:59;3.97;;;2.60;;
17927;SDS011;9089;58.396;15.544;2022-12-07T07:07:25;4.55;;;2.33;;
17927;SDS011;9089;58.396;15.544;2022-12-07T07:09:50;4.35;;;2.67;;
17927;SDS011;9089;58.396;15.544;2022-12-07T07:12:15;3.38;;;2.67;;
17927;SDS011;9089;58.396;15.544;2022-12-07T07:14:41;3.20;;;2.20;;
17927;SDS011;9089;58.396;15.544;2022-12-07T07:17:07;3.13;;;2.60;;
17927;SDS011;9089;58.396;15.544;2022-12-07T07:19:32;5.07;;;2.60;;
17927;SDS011;9089;58.396;15.544;2022-12-07T07:21:59;7.55;;;2.45;;
17927;SDS011;9089;58.396;15.544;2022-12-07T07:24:24;5.68;;;2.58;;
17927;SDS011;9089;58.396;15.544;2022-12-07T07:26:50;8.55;;;2.47;;
17927;SDS011;9089;58.396;15.544;2022-12-07T07:29:15;4.57;;;2.47;;
17927;SDS011;9089;58.396;15.544;2022-12-07T07:31:40;6.07;;;2.92;;
17927;SDS011;9089;58.396;15.544;2022-12-07T07:34:06;3.28;;;2.42;;
17927;SDS011;9089;58.396;15.544;2022-12-07T07:36:32;7.05;;;2.35;;
17927;SDS011;9089;58.396;15.544;2022-12-07T07:38:59;4.97;;;2.70;;
17927;SDS011;9089;58.396;15.544;2022-12-07T07:41:24;5.63;;;2.33;;
17927;SDS011;9089;58.396;15.544;2022-12-07T07:43:49;5.55;;;2.40;;
17927;SDS011;9089;58.396;15.544;2022-12-07T07:46:15;5.82;;;2.45;;
17927;SDS011;9089;58.396;15.544;2022-12-07T07:48:41;5.45;;;2.42;;
17927;SDS011;9089;58.396;15.544;2022-12-07T07:51:06;3.08;;;2.40;;
17927;SDS011;9089;58.396;15.544;2022-12-07T07:53:32;2.65;;;2.13;;
17927;SDS011;9089;58.396;15.544;2022-12-07T07:55:59;5.10;;;2.42;;
17927;SDS011;9089;58.396;15.544;2022-12-07T07:58:24;3.45;;;2.10;;
17927;SDS011;9089;58.396;15.544;2022-12-07T08:00:50;5.10;;;2.40;;
17927;SDS011;9089;58.396;15.544;2022-12-07T08:03:16;9.73;;;2.72;;
17927;SDS011;9089;58.396;15.544;2022-12-07T08:05:41;4.15;;;2.15;;
17927;SDS011;9089;58.396;15.544;2022-12-07T08:08:07;4.78;;;2.38;;
17927;SDS011;9089;58.396;15.544;2022-12-07T08:10:32;4.05;;;2.20;;
17927;SDS011;9089;58.396;15.544;2022-12-07T08:13:01;5.18;;;2.50;;
17927;SDS011;9089;58.396;15.544;2022-12-07T08:15:42;5.45;;;2.50;;
17927;SDS011;9089;58.396;15.544;2022-12-07T08:18:07;3.83;;;2.70;;
17927;SDS011;9089;58.396;15.544;2022-12-07T08:20:33;2.97;;;2.03;;
17927;SDS011;9089;58.396;15.544;2022-12-07T08:22:59;5.45;;;2.58;;
17927;SDS011;9089;58.396;15.544;2022-12-07T08:25:25;5.45;;;2.65;;
17927;SDS011;9089;58.396;15.544;2022-12-07T08:27:50;4.88;;;2.70;;
17927;SDS011;9089;58.396;15.544;2022-12-07T08:30:17;8.70;;;3.15;;
17927;SDS011;9089;58.396;15.544;2022-12-07T08:32:43;8.77;;;3.08;;
17927;SDS011;9089;58.396;15.544;2022-12-07T08:35:09;6.53;;;2.95;;
17927;SDS011;9089;58.396;15.544;2022-12-07T08:37:34;4.18;;;2.58;;
17927;SDS011;9089;58.396;15.544;2022-12-07T08:40:00;6.38;;;2.42;;
17927;SDS011;9089;58.396;15.544;2022-12-07T08:42:25;4.47;;;2.22;;
17927;SDS011;9089;58.396;15.544;2022-12-07T08:44:55;3.00;;;2.10;;
17927;SDS011;9089;58.396;15.544;2022-12-07T08:47:21;4.53;;;2.30;;
17927;SDS011;9089;58.396;15.544;2022-12-07T08:49:47;2.78;;;2.50;;
17927;SDS011;9089;58.396;15.544;2022-12-07T08:52:15;4.05;;;2.40;;
17927;SDS011;9089;58.396;15.544;2022-12-07T08:54:40;3.85;;;2.70;;
17927;SDS011;9089;58.396;15.544;2022-12-07T08:57:06;6.05;;;2.58;;
17927;SDS011;9089;58.396;15.544;2022-12-07T08:59:32;4.20;;;2.40;;
17927;SDS011;9089;58.396;15.544;2022-12-07T09:01:58;4.00;;;2.42;;
17927;SDS011;9089;58.396;15.544;2022-12-07T09:04:25;4.28;;;2.70;;
17927;SDS011;9089;58.396;15.544;2022-12-07T09:06:50;5.28;;;2.30;;
17927;SDS011;9089;58.396;15.544;2022-12-07T09:09:16;4.97;;;2.50;;
17927;SDS011;9089;58.396;15.544;2022-12-07T09:11:41;2.38;;;1.85;;
17927;SDS011;9089;58.396;15.544;2022-12-07T09:14:06;5.15;;;2.33;;
17927;SDS011;9089;58.396;15.544;2022-12-07T09:16:32;2.63;;;2.05;;
17927;SDS011;9089;58.396;15.544;2022-12-07T09:18:57;10.32;;;2.80;;
17927;SDS011;9089;58.396;15.544;2022-12-07T09:21:24;4.13;;;2.78;;
17927;SDS011;9089;58.396;15.544;2022-12-07T09:23:50;4.40;;;2.63;;
17927;SDS011;9089;58.396;15.544;2022-12-07T09:26:15;3.28;;;2.33;;
17927;SDS011;9089;58.396;15.544;2022-12-07T09:28:40;4.00;;;2.25;;
17927;SDS011;9089;58.396;15.544;2022-12-07T09:31:06;3.72;;;1.90;;
17927;SDS011;9089;58.396;15.544;2022-12-07T09:33:31;4.47;;;2.63;;
17927;SDS011;9089;58.396;15.544;2022-12-07T09:35:57;4.82;;;2.60;;
17927;SDS011;9089;58.396;15.544;2022-12-07T09:38:24;8.43;;;2.80;;
17927;SDS011;9089;58.396;15.544;2022-12-07T09:40:51;3.92;;;2.75;;
17927;SDS011;9089;58.396;15.544;2022-12-07T09:43:18;4.32;;;2.03;;
17927;SDS011;9089;58.396;15.544;2022-12-07T09:45:44;5.25;;;2.00;;
17927;SDS011;9089;58.396;15.544;2022-12-07T09:48:13;4.05;;;2.53;;
17927;SDS011;9089;58.396;15.544;2022-12-07T09:50:41;4.75;;;2.80;;
17927;SDS011;9089;58.396;15.544;2022-12-07T09:53:07;4.60;;;2.00;;
17927;SDS011;9089;58.396;15.544;2022-12-07T09:55:35;3.35;;;2.22;;
17927;SDS011;9089;58.396;15.544;2022-12-07T09:58:01;7.82;;;3.00;;
17927;SDS011;9089;58.396;15.544;2022-12-07T10:00:26;5.78;;;2.60;;
17927;SDS011;9089;58.396;15.544;2022-12-07T10:02:55;5.82;;;2.10;;
17927;SDS011;9089;58.396;15.544;2022-12-07T10:05:22;6.03;;;2.50;;
17927;SDS011;9089;58.396;15.544;2022-12-07T10:07:49;3.40;;;2.38;;
17927;SDS011;9089;58.396;15.544;2022-12-07T10:10:17;4.15;;;1.92;;
17927;SDS011;9089;58.396;15.544;2022-12-07T10:12:54;5.30;;;2.63;;
17927;SDS011;9089;58.396;15.544;2022-12-07T10:15:20;3.10;;;2.13;;
17927;SDS011;9089;58.396;15.544;2022-12-07T10:17:47;4.60;;;1.50;;
17927;SDS011;9089;58.396;15.544;2022-12-07T10:20:23;2.30;;;1.85;;
17927;SDS011;9089;58.396;15.544;2022-12-07T10:22:55;3.55;;;1.88;;
17927;SDS011;9089;58.396;15.544;2022-12-07T10:25:22;3.15;;;1.52;;
17927;SDS011;9089;58.396;15.544;2022-12-07T10:27:57;3.72;;;1.63;;
17927;SDS011;9089;58.396;15.544;2022-12-07T10:30:23;3.05;;;1.92;;
17927;SDS011;9089;58.396;15.544;2022-12-07T10:32:48;4.28;;;1.90;;
17927;SDS011;9089;58.396;15.544;2022-12-07T10:35:24;2.58;;;1.48;;
17927;SDS011;9089;58.396;15.544;2022-12-07T10:37:51;2.78;;;1.98;;
17927;SDS011;9089;58.396;15.544;2022-12-07T10:40:24;4.88;;;1.98;;
17927;SDS011;9089;58.396;15.544;2022-12-07T10:43:01;4.18;;;1.90;;
17927;SDS011;9089;58.396;15.544;2022-12-07T10:45:27;2.10;;;1.77;;
17927;SDS011;9089;58.396;15.544;2022-12-07T10:47:54;3.20;;;1.80;;
17927;SDS011;9089;58.396;15.544;2022-12-07T10:50:29;5.78;;;1.92;;
17927;SDS011;9089;58.396;15.544;2022-12-07T10:53:05;3.15;;;1.90;;
17927;SDS011;9089;58.396;15.544;2022-12-07T10:55:36;4.20;;;2.38;;
17927;SDS011;9089;58.396;15.544;2022-12-07T10:58:14;3.83;;;2.10;;
17927;SDS011;9089;58.396;15.544;2022-12-07T11:00:43;6.03;;;2.05;;
17927;SDS011;9089;58.396;15.544;2022-12-07T11:03:19;3.95;;;2.03;;
17927;SDS011;9089;58.396;15.544;2022-12-07T11:05:49;1.98;;;1.60;;
17927;SDS011;9089;58.396;15.544;2022-12-07T11:08:21;5.00;;;2.10;;
17927;SDS011;9089;58.396;15.544;2022-12-07T11:10:50;2.60;;;1.90;;
17927;SDS011;9089;58.396;15.544;2022-12-07T11:13:24;2.92;;;1.98;;
17927;SDS011;9089;58.396;15.544;2022-12-07T11:15:56;4.28;;;1.88;;
17927;SDS011;9089;58.396;15.544;2022-12-07T11:18:27;2.80;;;2.30;;
17927;SDS011;9089;58.396;15.544;2022-12-07T11:20:58;3.60;;;2.30;;
17927;SDS011;9089;58.396;15.544;2022-12-07T11:23:31;3.35;;;1.90;;
17927;SDS011;9089;58.396;15.544;2022-12-07T11:26:01;4.32;;;2.05;;
17927;SDS011;9089;58.396;15.544;2022-12-07T11:28:35;5.00;;;2.10;;
17927;SDS011;9089;58.396;15.544;2022-12-07T11:31:05;3.13;;;2.30;;
17927;SDS011;9089;58.396;15.544;2022-12-07T11:33:35;4.70;;;2.13;;
17927;SDS011;9089;58.396;15.544;2022-12-07T11:36:07;5.15;;;1.83;;
17927;SDS011;9089;58.396;15.544;2022-12-07T11:38:36;4.85;;;2.13;;
17927;SDS011;9089;58.396;15.544;2022-12-07T11:41:03;3.85;;;1.88;;
17927;SDS011;9089;58.396;15.544;2022-12-07T11:43:50;7.05;;;2.78;;
17927;SDS011;9089;58.396;15.544;2022-12-07T11:46:16;6.60;;;2.10;;
17927;SDS011;9089;58.396;15.544;2022-12-07T11:48:43;2.38;;;1.60;;
17927;SDS011;9089;58.396;15.544;2022-12-07T11:51:11;3.05;;;2.00;;
17927;SDS011;9089;58.396;15.544;2022-12-07T11:53:37;3.22;;;2.20;;
17927;SDS011;9089;58.396;15.544;2022-12-07T11:56:06;2.85;;;1.80;;
17927;SDS011;9089;58.396;15.544;2022-12-07T11:58:38;3.92;;;1.70;;
17927;SDS011;9089;58.396;15.544;2022-12-07T12:01:11;3.03;;;1.73;;
17927;SDS011;9089;58.396;15.544;2022-12-07T12:03:40;3.13;;;1.95;;
17927;SDS011;9089;58.396;15.544;2022-12-07T12:06:06;3.58;;;2.03;;
17927;SDS011;9089;58.396;15.544;2022-12-07T12:08:33;4.80;;;2.13;;
17927;SDS011;9089;58.396;15.544;2022-12-07T12:11:00;3.70;;;1.75;;
17927;SDS011;9089;58.396;15.544;2022-12-07T12:13:33;4.22;;;1.52;;
17927;SDS011;9089;58.396;15.544;2022-12-07T12:16:06;6.18;;;1.73;;
17927;SDS011;9089;58.396;15.544;2022-12-07T12:21:15;5.25;;;1.65;;
17927;SDS011;9089;58.396;15.544;2022-12-07T12:23:42;4.03;;;1.92;;
17927;SDS011;9089;58.396;15.544;2022-12-07T12:26:13;5.32;;;2.55;;
17927;SDS011;9089;58.396;15.544;2022-12-07T12:28:41;4.30;;;1.80;;
17927;SDS011;9089;58.396;15.544;2022-12-07T12:31:09;4.68;;;2.05;;
17927;SDS011;9089;58.396;15.544;2022-12-07T12:33:37;5.63;;;1.70;;
17927;SDS011;9089;58.396;15.544;2022-12-07T12:38:51;3.08;;;1.90;;
17927;SDS011;9089;58.396;15.544;2022-12-07T12:41:51;2.95;;;2.00;;
17927;SDS011;9089;58.396;15.544;2022-12-07T12:46:57;4.90;;;2.03;;
17927;SDS011;9089;58.396;15.544;2022-12-07T12:49:33;4.28;;;2.00;;
17927;SDS011;9089;58.396;15.544;2022-12-07T12:51:59;6.40;;;1.90;;
17927;SDS011;9089;58.396;15.544;2022-12-07T12:54:27;5.53;;;2.10;;
17927;SDS011;9089;58.396;15.544;2022-12-07T12:56:54;6.45;;;1.88;;
17927;SDS011;9089;58.396;15.544;2022-12-07T12:59:24;8.70;;;1.92;;
17927;SDS011;9089;58.396;15.544;2022-12-07T13:01:50;4.85;;;1.90;;
17927;SDS011;9089;58.396;15.544;2022-12-07T13:04:27;6.00;;;1.90;;
17927;SDS011;9089;58.396;15.544;2022-12-07T13:06:53;5.90;;;1.88;;
17927;SDS011;9089;58.396;15.544;2022-12-07T13:09:20;4.63;;;1.77;;
17927;SDS011;9089;58.396;15.544;2022-12-07T13:11:48;4.60;;;1.80;;
17927;SDS011;9089;58.396;15.544;2022-12-07T13:17:34;2.53;;;1.40;;
17927;SDS011;9089;58.396;15.544;2022-12-07T13:20:02;3.45;;;1.60;;
17927;SDS011;9089;58.396;15.544;2022-12-07T13:22:44;2.17;;;1.40;;
17927;SDS011;9089;58.396;15.544;2022-12-07T13:25:12;2.28;;;1.17;;
17927;SDS011;9089;58.396;15.544;2022-12-07T13:27:44;6.97;;;2.05;;
17927;SDS011;9089;58.396;15.544;2022-12-07T13:30:14;5.50;;;1.85;;
17927;SDS011;9089;58.396;15.544;2022-12-07T13:32:40;2.33;;;1.88;;
17927;SDS011;9089;58.396;15.544;2022-12-07T13:37:48;5.25;;;1.70;;
17927;SDS011;9089;58.396;15.544;2022-12-07T13:40:17;3.30;;;1.60;;
17927;SDS011;9089;58.396;15.544;2022-12-07T13:42:43;2.10;;;1.67;;
17927;SDS011;9089;58.396;15.544;2022-12-07T13:45:17;3.72;;;1.65;;
17927;SDS011;9089;58.396;15.544;2022-12-07T13:47:46;3.92;;;2.00;;
17927;SDS011;9089;58.396;15.544;2022-12-07T13:50:21;2.88;;;1.95;;
17927;SDS011;9089;58.396;15.544;2022-12-07T13:52:49;2.28;;;1.85;;
17927;SDS011;9089;58.396;15.544;2022-12-07T13:55:16;1.85;;;1.52;;
17927;SDS011;9089;58.396;15.544;2022-12-07T13:57:42;2.95;;;1.60;;
17927;SDS011;9089;58.396;15.544;2022-12-07T14:00:13;2.05;;;1.60;;
17927;SDS011;9089;58.396;15.544;2022-12-07T14:02:53;4.10;;;1.63;;
17927;SDS011;9089;58.396;15.544;2022-12-07T14:05:23;3.25;;;1.63;;
17927;SDS011;9089;58.396;15.544;2022-12-07T14:07:52;3.15;;;1.73;;
17927;SDS011;9089;58.396;15.544;2022-12-07T14:10:25;1.55;;;1.42;;
17927;SDS011;9089;58.396;15.544;2022-12-07T14:12:50;1.85;;;1.35;;
17927;SDS011;9089;58.396;15.544;2022-12-07T14:15:19;2.05;;;1.85;;
17927;SDS011;9089;58.396;15.544;2022-12-07T14:17:49;3.97;;;1.63;;
17927;SDS011;9089;58.396;15.544;2022-12-07T14:20:29;3.03;;;1.90;;
17927;SDS011;9089;58.396;15.544;2022-12-07T14:22:55;4.03;;;1.77;;
17927;SDS011;9089;58.396;15.544;2022-12-07T14:25:21;3.80;;;1.75;;
17927;SDS011;9089;58.396;15.544;2022-12-07T14:27:48;3.10;;;1.48;;
17927;SDS011;9089;58.396;15.544;2022-12-07T14:30:14;2.80;;;2.00;;
17927;SDS011;9089;58.396;15.544;2022-12-07T14:32:40;2.25;;;1.63;;
17927;SDS011;9089;58.396;15.544;2022-12-07T14:35:09;1.63;;;1.50;;
17927;SDS011;9089;58.396;15.544;2022-12-07T14:37:38;3.88;;;1.63;;
17927;SDS011;9089;58.396;15.544;2022-12-07T14:40:06;2.80;;;1.73;;
17927;SDS011;9089;58.396;15.544;2022-12-07T14:42:32;4.97;;;2.13;;
17927;SDS011;9089;58.396;15.544;2022-12-07T14:44:58;3.83;;;1.73;;
17927;SDS011;9089;58.396;15.544;2022-12-07T14:47:23;3.53;;;1.83;;
17927;SDS011;9089;58.396;15.544;2022-12-07T14:49:49;4.00;;;1.67;;
17927;SDS011;9089;58.396;15.544;2022-12-07T14:52:15;1.83;;;1.52;;
17927;SDS011;9089;58.396;15.544;2022-12-07T14:54:41;5.13;;;2.00;;
17927;SDS011;9089;58.396;15.544;2022-12-07T14:57:09;3.75;;;2.08;;
17927;SDS011;9089;58.396;15.544;2022-12-07T14:59:35;3.25;;;2.03;;
17927;SDS011;9089;58.396;15.544;2022-12-07T15:02:00;4.35;;;1.58;;
17927;SDS011;9089;58.396;15.544;2022-12-07T15:04:25;1.80;;;1.52;;
17927;SDS011;9089;58.396;15.544;2022-12-07T15:06:55;3.63;;;1.63;;
17927;SDS011;9089;58.396;15.544;2022-12-07T15:09:20;2.33;;;1.50;;